createdAt,value
2017-03-15T00:00:34.785Z,94.93
2017-03-15T00:01:35.189Z,95.65
2017-03-15T00:02:35.590Z,95.22
2017-03-15T00:03:36.005Z,95.7
2017-03-15T00:04:36.408Z,95.12
2017-03-15T00:05:36.801Z,95.41
2017-03-15T00:06:37.209Z,95.41
2017-03-15T00:07:37.611Z,95.51
2017-03-15T00:08:38.010Z,95.6
2017-03-15T00:09:38.422Z,95.51
2017-03-15T00:10:38.835Z,95.6
2017-03-15T00:11:39.239Z,96.08
2017-03-15T00:12:39.644Z,95.7
2017-03-15T00:13:40.079Z,96.27
2017-03-15T00:14:40.488Z,96.08
2017-03-15T00:15:40.886Z,96.08
2017-03-15T00:16:41.300Z,95.7
2017-03-15T00:17:41.685Z,95.7
2017-03-15T00:18:42.083Z,95.89
2017-03-15T00:19:42.518Z,95.79
2017-03-15T00:20:42.912Z,95.79
2017-03-15T00:21:43.323Z,95.89
2017-03-15T00:22:43.735Z,95.98
2017-03-15T00:23:44.141Z,95.41
2017-03-15T00:24:44.535Z,96.27
2017-03-15T00:25:44.951Z,96.36
2017-03-15T00:26:45.439Z,95.41
2017-03-15T00:27:45.844Z,96.17
2017-03-15T00:28:46.245Z,95.89
2017-03-15T00:29:46.633Z,96.08
2017-03-15T00:30:47.044Z,96.08
2017-03-15T00:31:47.438Z,95.98
2017-03-15T00:32:47.828Z,95.7
2017-03-15T00:33:48.239Z,96.27
2017-03-15T00:34:48.647Z,96.27
2017-03-15T00:35:49.050Z,96.46
2017-03-15T00:36:49.434Z,96.46
2017-03-15T00:37:49.829Z,96.36
2017-03-15T00:38:50.228Z,96.55
2017-03-15T00:39:50.631Z,96.36
2017-03-15T00:40:51.023Z,96.36
2017-03-15T00:41:51.426Z,96.17
2017-03-15T00:42:51.836Z,96.27
2017-03-15T00:43:52.234Z,96.27
2017-03-15T00:44:52.636Z,96.17
2017-03-15T00:45:53.035Z,96.46
2017-03-15T00:46:53.432Z,96.46
2017-03-15T00:47:53.868Z,96.94
2017-03-15T00:48:54.268Z,96.75
2017-03-15T00:49:54.675Z,96.65
2017-03-15T00:50:55.077Z,96.94
2017-03-15T00:51:55.481Z,97.13
2017-03-15T00:52:55.889Z,97.22
2017-03-15T00:53:56.291Z,96.94
2017-03-15T00:54:56.692Z,97.13
2017-03-15T00:55:56.707Z,97.31
2017-03-15T00:56:57.111Z,97.13
2017-03-15T00:57:57.511Z,97.51
2017-03-15T00:58:57.916Z,97.7
2017-03-15T00:59:58.305Z,97.7
2017-03-15T01:00:58.703Z,97.22
2017-03-15T01:01:59.102Z,97.31
2017-03-15T01:02:59.496Z,97.51
2017-03-15T01:03:59.902Z,97.41
2017-03-15T01:05:00.340Z,97.51
2017-03-15T01:06:00.736Z,97.99
2017-03-15T01:07:01.144Z,97.89
2017-03-15T01:08:01.566Z,97.99
2017-03-15T01:09:01.965Z,97.7
2017-03-15T01:10:02.363Z,98.08
2017-03-15T01:11:02.764Z,97.79
2017-03-15T01:12:03.182Z,98.08
2017-03-15T01:13:03.592Z,97.99
2017-03-15T01:14:04.001Z,97.99
2017-03-15T01:15:04.423Z,97.99
2017-03-15T01:16:04.820Z,98.18
2017-03-15T01:17:05.233Z,97.99
2017-03-15T01:18:05.645Z,98.18
2017-03-15T01:19:06.053Z,97.89
2017-03-15T01:20:06.437Z,98.36
2017-03-15T01:21:06.845Z,98.18
2017-03-15T01:22:07.249Z,98.27
2017-03-15T01:23:07.656Z,97.7
2017-03-15T01:24:08.047Z,98.36
2017-03-15T01:25:08.451Z,98.46
2017-03-15T01:26:08.845Z,98.94
2017-03-15T01:27:09.239Z,99.03
2017-03-15T01:28:09.673Z,98.65
2017-03-15T01:29:10.074Z,98.84
2017-03-15T01:30:10.511Z,98.74
2017-03-15T01:31:10.911Z,98.55
2017-03-15T01:32:11.326Z,98.94
2017-03-15T01:33:11.741Z,98.94
2017-03-15T01:34:12.126Z,99.03
2017-03-15T01:35:12.519Z,98.94
2017-03-15T01:36:12.930Z,98.84
2017-03-15T01:37:13.332Z,99.13
2017-03-15T01:38:13.743Z,99.03
2017-03-15T01:39:14.158Z,99.32
2017-03-15T01:40:14.561Z,99.32
2017-03-15T01:41:14.967Z,99.32
2017-03-15T01:42:15.371Z,99.32
2017-03-15T01:43:15.774Z,99.22
2017-03-15T01:44:16.157Z,98.94
2017-03-15T01:45:16.561Z,98.84
2017-03-15T01:46:16.969Z,99.22
2017-03-15T01:47:17.367Z,99.32
2017-03-15T01:48:17.777Z,99.32
2017-03-15T01:49:18.177Z,99.32
2017-03-15T01:50:18.567Z,99.41
2017-03-15T01:51:18.967Z,99.13
2017-03-15T01:52:19.379Z,99.51
2017-03-15T01:53:19.785Z,99.51
2017-03-15T01:54:20.181Z,99.51
2017-03-15T01:55:20.585Z,99.13
2017-03-15T01:56:21.000Z,99.41
2017-03-15T01:57:21.407Z,99.22
2017-03-15T01:58:21.810Z,99.13
2017-03-15T01:59:22.204Z,99.22
2017-03-15T02:00:22.601Z,99.32
2017-03-15T02:01:23.037Z,99.69
2017-03-15T02:02:23.431Z,99.32
2017-03-15T02:03:23.812Z,99.99
2017-03-15T02:04:24.208Z,99.98
2017-03-15T02:05:24.641Z,99.79
2017-03-15T02:06:25.045Z,99.79
2017-03-15T02:07:25.458Z,99.99
2017-03-15T02:08:25.863Z,99.69
2017-03-15T02:09:26.267Z,99.99
2017-03-15T02:10:26.673Z,99.98
2017-03-15T02:11:27.096Z,99.99
2017-03-15T02:12:27.497Z,99.99
2017-03-15T02:13:27.896Z,99.99
2017-03-15T02:14:28.299Z,99.99
2017-03-15T02:15:28.722Z,99.99
2017-03-15T02:16:29.121Z,99.99
2017-03-15T02:17:29.533Z,99.99
2017-03-15T02:18:29.936Z,99.99
2017-03-15T02:19:30.342Z,99.99
2017-03-15T02:20:30.731Z,99.99
2017-03-15T02:21:31.127Z,99.99
2017-03-15T02:22:31.541Z,99.99
2017-03-15T02:23:31.956Z,99.99
2017-03-15T02:24:32.362Z,99.99
2017-03-15T02:25:32.767Z,99.99
2017-03-15T02:26:33.174Z,99.99
2017-03-15T02:27:33.582Z,99.99
2017-03-15T02:28:33.982Z,99.99
2017-03-15T02:29:34.392Z,99.99
2017-03-15T02:30:34.797Z,99.99
2017-03-15T02:31:35.200Z,99.99
2017-03-15T02:32:35.597Z,99.99
2017-03-15T02:33:36.002Z,99.99
2017-03-15T02:34:36.414Z,99.99
2017-03-15T02:35:36.826Z,99.99
2017-03-15T02:36:37.227Z,99.99
2017-03-15T02:37:37.626Z,99.99
2017-03-15T02:38:38.032Z,99.99
2017-03-15T02:39:38.441Z,99.99
2017-03-15T02:40:38.856Z,99.99
2017-03-15T02:41:39.272Z,99.99
2017-03-15T02:42:39.669Z,99.99
2017-03-15T02:43:40.082Z,99.99
2017-03-15T02:44:40.462Z,99.99
2017-03-15T02:45:40.912Z,99.99
2017-03-15T02:46:41.317Z,99.99
2017-03-15T02:47:41.720Z,99.99
2017-03-15T02:48:42.121Z,99.99
2017-03-15T02:49:42.524Z,99.99
2017-03-15T02:50:42.923Z,99.99
2017-03-15T02:51:43.328Z,99.99
2017-03-15T02:52:43.744Z,99.99
2017-03-15T02:53:44.156Z,99.99
2017-03-15T02:54:44.567Z,99.99
2017-03-15T02:55:44.973Z,99.99
2017-03-15T02:56:45.378Z,99.99
2017-03-15T02:57:45.774Z,99.99
2017-03-15T02:58:46.182Z,99.99
2017-03-15T02:59:46.579Z,99.99
2017-03-15T03:00:47.000Z,99.99
2017-03-15T03:01:47.412Z,99.99
2017-03-15T03:02:47.793Z,99.99
2017-03-15T03:03:48.198Z,99.99
2017-03-15T03:04:48.623Z,99.99
2017-03-15T03:05:49.018Z,99.99
2017-03-15T03:06:49.412Z,99.99
2017-03-15T03:07:49.819Z,99.99
2017-03-15T03:08:50.232Z,99.99
2017-03-15T03:09:50.648Z,99.99
2017-03-15T03:10:51.053Z,99.99
2017-03-15T03:11:51.452Z,99.99
2017-03-15T03:12:51.880Z,99.99
2017-03-15T03:13:52.291Z,99.99
2017-03-15T03:14:52.702Z,99.99
2017-03-15T03:15:53.123Z,99.99
2017-03-15T03:16:53.520Z,99.99
2017-03-15T03:17:53.920Z,99.99
2017-03-15T03:18:54.318Z,99.99
2017-03-15T03:19:54.721Z,99.99
2017-03-15T03:20:55.127Z,99.99
2017-03-15T03:21:55.530Z,99.99
2017-03-15T03:22:55.931Z,99.99
2017-03-15T03:23:56.346Z,99.99
2017-03-15T03:24:56.735Z,99.99
2017-03-15T03:25:57.152Z,99.99
2017-03-15T03:26:57.540Z,99.99
2017-03-15T03:27:57.932Z,99.99
2017-03-15T03:28:58.342Z,99.99
2017-03-15T03:29:58.729Z,99.99
2017-03-15T03:30:59.125Z,99.99
2017-03-15T03:31:59.533Z,99.99
2017-03-15T03:32:59.927Z,99.99
2017-03-15T03:34:00.327Z,99.99
2017-03-15T03:35:00.717Z,99.99
2017-03-15T03:36:01.124Z,99.99
2017-03-15T03:37:01.531Z,99.99
2017-03-15T03:38:01.938Z,99.99
2017-03-15T03:39:02.325Z,99.99
2017-03-15T03:40:02.718Z,99.99
2017-03-15T03:41:03.126Z,99.99
2017-03-15T03:42:03.529Z,99.99
2017-03-15T03:43:03.935Z,99.99
2017-03-15T03:44:04.346Z,99.99
2017-03-15T03:45:04.786Z,99.99
2017-03-15T03:46:05.195Z,99.99
2017-03-15T03:47:05.605Z,99.99
2017-03-15T03:48:06.030Z,99.99
2017-03-15T03:49:06.432Z,99.99
2017-03-15T03:50:06.868Z,99.99
2017-03-15T03:51:07.293Z,99.99
2017-03-15T03:52:07.694Z,99.99
2017-03-15T03:53:08.097Z,99.99
2017-03-15T03:54:08.499Z,99.99
2017-03-15T03:55:08.898Z,99.99
2017-03-15T03:56:09.299Z,99.99
2017-03-15T03:57:09.720Z,99.99
2017-03-15T03:58:10.125Z,99.99
2017-03-15T03:59:10.525Z,99.99
2017-03-15T04:00:11.155Z,99.99
2017-03-15T04:01:11.601Z,99.99
2017-03-15T04:02:11.993Z,99.99
2017-03-15T04:03:12.395Z,99.99
2017-03-15T04:04:12.794Z,99.99
2017-03-15T04:05:13.246Z,99.99
2017-03-15T04:06:13.674Z,99.99
2017-03-15T04:07:14.082Z,99.99
2017-03-15T04:08:14.485Z,99.99
2017-03-15T04:09:14.894Z,99.99
2017-03-15T04:10:15.280Z,99.99
2017-03-15T04:11:15.680Z,99.99
2017-03-15T04:12:16.130Z,99.99
2017-03-15T04:13:16.541Z,99.99
2017-03-15T04:14:16.932Z,99.99
2017-03-15T04:15:17.333Z,99.99
2017-03-15T04:16:17.730Z,99.99
2017-03-15T04:17:18.157Z,99.99
2017-03-15T04:18:18.562Z,99.99
2017-03-15T04:19:18.974Z,99.99
2017-03-15T04:20:19.392Z,99.99
2017-03-15T04:21:19.807Z,99.99
2017-03-15T04:22:20.204Z,99.99
2017-03-15T04:23:20.602Z,99.99
2017-03-15T04:24:21.015Z,99.99
2017-03-15T04:25:21.435Z,99.99
2017-03-15T04:26:21.832Z,99.99
2017-03-15T04:27:22.203Z,99.99
2017-03-15T04:28:22.621Z,99.99
2017-03-15T04:29:23.013Z,99.99
2017-03-15T04:30:23.415Z,99.99
2017-03-15T04:31:23.833Z,99.99
2017-03-15T04:32:24.234Z,99.99
2017-03-15T04:33:24.633Z,99.99
2017-03-15T04:34:25.037Z,99.99
2017-03-15T04:35:25.448Z,99.99
2017-03-15T04:36:25.858Z,99.99
2017-03-15T04:37:26.257Z,99.99
2017-03-15T04:38:26.671Z,99.99
2017-03-15T04:39:27.077Z,99.99
2017-03-15T04:40:27.489Z,99.99
2017-03-15T04:41:27.905Z,99.99
2017-03-15T04:42:28.313Z,99.99
2017-03-15T04:43:28.717Z,99.99
2017-03-15T04:44:29.103Z,99.99
2017-03-15T04:45:29.512Z,99.99
2017-03-15T04:46:29.901Z,99.99
2017-03-15T04:47:30.311Z,99.99
2017-03-15T04:48:30.724Z,99.99
2017-03-15T04:49:31.128Z,99.99
2017-03-15T04:50:31.546Z,99.99
2017-03-15T04:51:31.956Z,99.99
2017-03-15T04:52:32.354Z,99.99
2017-03-15T04:53:32.753Z,99.99
2017-03-15T04:54:33.160Z,99.99
2017-03-15T04:55:33.560Z,99.99
2017-03-15T04:56:33.965Z,99.99
2017-03-15T04:57:34.356Z,99.99
2017-03-15T04:58:34.750Z,99.99
2017-03-15T04:59:35.155Z,99.99
2017-03-15T05:00:35.270Z,99.99
2017-03-15T05:01:35.672Z,99.99
2017-03-15T05:02:36.083Z,99.99
2017-03-15T05:03:36.498Z,99.99
2017-03-15T05:04:36.906Z,99.99
2017-03-15T05:05:37.523Z,99.99
2017-03-15T05:06:37.331Z,99.99
2017-03-15T05:07:37.735Z,99.99
2017-03-15T05:08:38.137Z,99.99
2017-03-15T05:09:38.536Z,99.99
2017-03-15T05:10:38.936Z,99.99
2017-03-15T05:11:39.329Z,99.99
2017-03-15T05:12:39.733Z,99.99
2017-03-15T05:13:40.145Z,99.99
2017-03-15T05:14:40.554Z,99.99
2017-03-15T05:15:40.953Z,99.99
2017-03-15T05:16:41.345Z,99.99
2017-03-15T05:17:41.751Z,99.99
2017-03-15T05:18:42.151Z,99.99
2017-03-15T05:19:42.556Z,99.99
2017-03-15T05:20:42.959Z,99.99
2017-03-15T05:21:43.352Z,99.99
2017-03-15T05:22:43.753Z,99.99
2017-03-15T05:23:44.154Z,99.99
2017-03-15T05:24:44.562Z,99.99
2017-03-15T05:25:44.973Z,99.99
2017-03-15T05:26:45.382Z,99.99
2017-03-15T05:27:45.790Z,99.99
2017-03-15T05:28:46.204Z,99.99
2017-03-15T05:29:46.609Z,99.99
2017-03-15T05:30:47.024Z,99.99
2017-03-15T05:31:47.470Z,99.99
2017-03-15T05:32:47.877Z,99.99
2017-03-15T05:33:48.272Z,99.99
2017-03-15T05:34:48.674Z,99.99
2017-03-15T05:35:49.071Z,99.99
2017-03-15T05:36:49.470Z,99.99
2017-03-15T05:37:49.857Z,99.99
2017-03-15T05:38:50.253Z,99.99
2017-03-15T05:39:50.654Z,99.99
2017-03-15T05:40:51.054Z,99.99
2017-03-15T05:41:51.459Z,99.99
2017-03-15T05:42:51.858Z,99.99
2017-03-15T05:43:52.267Z,99.99
2017-03-15T05:44:52.670Z,99.99
2017-03-15T05:45:53.059Z,99.99
2017-03-15T05:46:53.468Z,99.99
2017-03-15T05:47:53.901Z,99.99
2017-03-15T05:48:54.302Z,99.99
2017-03-15T05:49:54.716Z,99.99
2017-03-15T05:50:55.100Z,99.99
2017-03-15T05:51:55.502Z,99.99
2017-03-15T05:52:55.902Z,99.99
2017-03-15T05:53:56.320Z,99.99
2017-03-15T05:54:56.729Z,99.99
2017-03-15T05:55:57.110Z,99.99
2017-03-15T05:56:57.516Z,99.99
2017-03-15T05:57:57.924Z,99.99
2017-03-15T05:58:58.309Z,99.99
2017-03-15T05:59:58.711Z,99.99
2017-03-15T06:00:58.727Z,99.99
2017-03-15T06:01:59.152Z,99.99
2017-03-15T06:02:59.572Z,99.99
2017-03-15T06:03:59.983Z,99.99
2017-03-15T06:05:00.381Z,99.99
2017-03-15T06:06:00.787Z,99.99
2017-03-15T06:07:01.185Z,99.99
2017-03-15T06:08:01.581Z,99.99
2017-03-15T06:09:02.003Z,99.99
2017-03-15T06:10:02.405Z,99.99
2017-03-15T06:11:02.819Z,99.99
2017-03-15T06:12:03.235Z,99.99
2017-03-15T06:13:03.636Z,99.99
2017-03-15T06:14:04.078Z,99.99
2017-03-15T06:15:04.484Z,99.99
2017-03-15T06:16:04.909Z,99.99
2017-03-15T06:17:05.322Z,99.99
2017-03-15T06:18:05.732Z,99.99
2017-03-15T06:19:06.134Z,99.99
2017-03-15T06:20:06.534Z,99.99
2017-03-15T06:21:06.918Z,99.99
2017-03-15T06:22:07.315Z,99.99
2017-03-15T06:23:07.726Z,99.99
2017-03-15T06:24:08.133Z,99.99
2017-03-15T06:25:08.531Z,99.99
2017-03-15T06:26:08.924Z,99.99
2017-03-15T06:27:09.325Z,99.99
2017-03-15T06:28:10.219Z,99.99
2017-03-15T06:29:10.248Z,99.99
2017-03-15T06:30:10.287Z,99.99
2017-03-15T06:31:10.319Z,99.99
2017-03-15T06:32:10.343Z,99.99
2017-03-15T06:33:10.389Z,99.99
2017-03-15T06:34:10.399Z,99.99
2017-03-15T06:35:10.430Z,99.99
2017-03-15T06:36:10.461Z,99.99
2017-03-15T06:37:10.484Z,99.99
2017-03-15T06:38:10.519Z,99.99
2017-03-15T06:39:10.556Z,99.99
2017-03-15T06:40:10.586Z,99.99
2017-03-15T06:41:10.611Z,99.99
2017-03-15T06:42:10.630Z,99.99
2017-03-15T06:43:10.679Z,99.99
2017-03-15T06:44:10.700Z,99.99
2017-03-15T06:45:10.727Z,99.99
2017-03-15T06:46:10.763Z,99.99
2017-03-15T06:47:10.791Z,99.99
2017-03-15T06:48:10.822Z,99.99
2017-03-15T06:49:10.864Z,99.99
2017-03-15T06:50:10.882Z,99.99
2017-03-15T06:51:10.916Z,99.99
2017-03-15T06:52:10.947Z,99.99
2017-03-15T06:53:10.963Z,99.99
2017-03-15T06:54:11.014Z,99.99
2017-03-15T06:55:11.025Z,99.99
2017-03-15T06:56:11.071Z,99.84
2017-03-15T06:57:11.125Z,99.99
2017-03-15T06:58:11.129Z,99.98
2017-03-15T06:59:11.155Z,99.22
2017-03-15T07:00:11.188Z,99.51
2017-03-15T07:01:11.213Z,99.41
2017-03-15T07:02:11.250Z,99.22
2017-03-15T07:03:11.283Z,99.79
2017-03-15T07:04:11.316Z,99.36
2017-03-15T07:05:11.339Z,99.32
2017-03-15T07:06:11.395Z,99.32
2017-03-15T07:07:11.390Z,99.27
2017-03-15T07:08:11.432Z,99.99
2017-03-15T07:09:11.452Z,99.93
2017-03-15T07:10:11.497Z,99.99
2017-03-15T07:11:11.530Z,99.93
2017-03-15T07:12:11.563Z,99.99
2017-03-15T07:13:11.590Z,99.99
2017-03-15T07:14:11.615Z,99.99
2017-03-15T07:15:11.650Z,99.93
2017-03-15T07:16:11.677Z,98.94
2017-03-15T07:17:11.705Z,96.89
2017-03-15T07:18:11.738Z,94.74
2017-03-15T07:19:11.767Z,90.69
2017-03-15T07:20:11.797Z,88.4
2017-03-15T07:21:11.828Z,86.91
2017-03-15T07:22:11.863Z,84.19
2017-03-15T07:23:11.902Z,82.41
2017-03-15T07:24:11.929Z,80.92
2017-03-15T07:25:11.958Z,79.81
2017-03-15T07:26:11.997Z,77.99
2017-03-15T07:27:12.020Z,77.84
2017-03-15T07:28:12.052Z,76.6
2017-03-15T07:29:12.082Z,76.4
2017-03-15T07:30:12.116Z,75.73
2017-03-15T07:31:12.140Z,75.45
2017-03-15T07:32:12.168Z,76.56
2017-03-15T07:33:12.211Z,76.46
2017-03-15T07:34:12.248Z,76.08
2017-03-15T07:35:12.275Z,76.27
2017-03-15T07:36:12.309Z,76.37
2017-03-15T07:37:12.350Z,76.27
2017-03-15T07:38:12.379Z,75.07
2017-03-15T07:39:12.407Z,74.49
2017-03-15T07:40:12.433Z,74.05
2017-03-15T07:41:12.474Z,74.49
2017-03-15T07:42:12.515Z,73.86
2017-03-15T07:43:12.544Z,72.17
2017-03-15T07:44:12.572Z,71.15
2017-03-15T07:45:12.606Z,71.5
2017-03-15T07:46:12.644Z,71.69
2017-03-15T07:47:12.676Z,72.07
2017-03-15T07:48:12.710Z,72.13
2017-03-15T07:49:12.760Z,72.13
2017-03-15T07:50:12.933Z,72.42
2017-03-15T07:51:12.817Z,72.13
2017-03-15T07:52:12.850Z,71.17
2017-03-15T07:53:12.885Z,71.37
2017-03-15T07:54:12.908Z,71.91
2017-03-15T07:55:13.060Z,73.72
2017-03-15T07:56:12.994Z,74.26
2017-03-15T07:57:13.017Z,75.09
2017-03-15T07:58:13.057Z,76.57
2017-03-15T07:59:13.089Z,77.25
2017-03-15T08:00:13.115Z,77.21
2017-03-15T08:01:13.157Z,77.82
2017-03-15T08:02:13.187Z,77.53
2017-03-15T08:03:13.212Z,77.82
2017-03-15T08:04:13.256Z,77.44
2017-03-15T08:05:13.290Z,77.21
2017-03-15T08:06:13.320Z,77.5
2017-03-15T08:07:13.364Z,77.5
2017-03-15T08:08:13.391Z,78.26
2017-03-15T08:09:13.413Z,78.7
2017-03-15T08:10:13.487Z,79.85
2017-03-15T08:11:13.490Z,79.27
2017-03-15T08:12:13.510Z,78.51
2017-03-15T08:13:13.564Z,78.45
2017-03-15T08:14:13.601Z,79.17
2017-03-15T08:15:13.611Z,80.32
2017-03-15T08:16:13.667Z,80.66
2017-03-15T08:17:13.695Z,81.33
2017-03-15T08:18:13.714Z,81.71
2017-03-15T08:19:13.781Z,81.43
2017-03-15T08:20:13.795Z,81.24
2017-03-15T08:21:13.811Z,80.61
2017-03-15T08:22:13.866Z,79.65
2017-03-15T08:23:13.894Z,78.26
2017-03-15T08:24:13.922Z,77.78
2017-03-15T08:25:13.988Z,77.78
2017-03-15T08:26:13.989Z,76.29
2017-03-15T08:27:14.025Z,74.51
2017-03-15T08:28:14.061Z,74.7
2017-03-15T08:29:14.108Z,74.38
2017-03-15T08:30:14.210Z,75.59
2017-03-15T08:31:14.154Z,76.6
2017-03-15T08:32:14.193Z,77.89
2017-03-15T08:33:14.211Z,79.23
2017-03-15T08:34:14.254Z,79.61
2017-03-15T08:35:14.585Z,79.19
2017-03-15T08:36:14.311Z,77.89
2017-03-15T08:37:14.369Z,76.03
2017-03-15T08:38:14.389Z,73.67
2017-03-15T08:39:14.422Z,70.34
2017-03-15T08:40:14.461Z,66.03
2017-03-15T08:41:14.495Z,62.68
2017-03-15T08:42:14.521Z,58.76
2017-03-15T08:43:14.557Z,55.29
2017-03-15T08:44:14.603Z,53.96
2017-03-15T08:45:14.634Z,52.47
2017-03-15T08:46:14.666Z,51.07
2017-03-15T08:47:14.705Z,49.92
2017-03-15T08:48:14.741Z,49.46
2017-03-15T08:49:14.777Z,49.49
2017-03-15T08:50:14.809Z,46.44
2017-03-15T08:51:14.843Z,46.63
2017-03-15T08:52:14.898Z,47.86
2017-03-15T08:53:14.937Z,48.76
2017-03-15T08:54:14.972Z,50.98
2017-03-15T08:55:15.017Z,54.75
2017-03-15T08:56:15.047Z,57.07
2017-03-15T08:57:15.087Z,59.8
2017-03-15T08:58:15.122Z,61.56
2017-03-15T08:59:15.153Z,63.26
2017-03-15T09:00:15.185Z,64.37
2017-03-15T09:01:15.230Z,66.7
2017-03-15T09:02:15.252Z,67.72
2017-03-15T09:03:15.315Z,67.05
2017-03-15T09:04:15.322Z,63.7
2017-03-15T09:05:15.373Z,62.23
2017-03-15T09:06:15.408Z,60.63
2017-03-15T09:07:15.434Z,57.07
2017-03-15T09:08:15.482Z,54.85
2017-03-15T09:09:15.530Z,51.94
2017-03-15T09:10:15.557Z,50.26
2017-03-15T09:11:15.599Z,48.88
2017-03-15T09:12:15.633Z,47.84
2017-03-15T09:13:15.676Z,48.32
2017-03-15T09:14:15.713Z,49.8
2017-03-15T09:15:15.757Z,53.58
2017-03-15T09:16:15.928Z,55.46
2017-03-15T09:17:15.846Z,56.78
2017-03-15T09:18:15.863Z,55.3
2017-03-15T09:19:15.901Z,53.27
2017-03-15T09:20:15.935Z,50.93
2017-03-15T09:21:16.102Z,49.8
2017-03-15T09:22:16.026Z,48.66
2017-03-15T09:23:16.061Z,48.39
2017-03-15T09:24:16.107Z,47.89
2017-03-15T09:25:16.140Z,47.89
2017-03-15T09:26:16.171Z,49.87
2017-03-15T09:27:16.222Z,52.37
2017-03-15T09:28:16.254Z,52.44
2017-03-15T09:29:16.299Z,50.09
2017-03-15T09:30:16.341Z,47.72
2017-03-15T09:31:16.374Z,45.75
2017-03-15T09:32:16.418Z,45.59
2017-03-15T09:33:16.455Z,44.02
2017-03-15T09:34:16.493Z,42.88
2017-03-15T09:35:16.537Z,42.9
2017-03-15T09:36:16.571Z,42.61
2017-03-15T09:37:16.617Z,42.13
2017-03-15T09:38:16.659Z,41.76
2017-03-15T09:39:16.702Z,42.05
2017-03-15T09:40:16.734Z,41.76
2017-03-15T09:41:16.775Z,42.54
2017-03-15T09:42:16.823Z,43.65
2017-03-15T09:43:16.859Z,44.91
2017-03-15T09:44:16.906Z,43.65
2017-03-15T09:45:17.246Z,42.34
2017-03-15T09:46:16.988Z,40.91
2017-03-15T09:47:17.044Z,41.47
2017-03-15T09:48:17.070Z,41.08
2017-03-15T09:49:17.111Z,41.1
2017-03-15T09:50:17.148Z,41.64
2017-03-15T09:51:17.188Z,43.68
2017-03-15T09:52:17.238Z,44.7
2017-03-15T09:53:17.270Z,45.84
2017-03-15T09:54:17.318Z,47.22
2017-03-15T09:55:17.501Z,46.55
2017-03-15T09:56:17.396Z,45.92
2017-03-15T09:57:17.428Z,43.81
2017-03-15T09:58:17.477Z,42.52
2017-03-15T09:59:17.515Z,41.48
2017-03-15T10:00:17.713Z,41.87
2017-03-15T10:01:17.597Z,42.89
2017-03-15T10:02:17.642Z,43.54
2017-03-15T10:03:17.683Z,43.85
2017-03-15T10:04:17.719Z,43.68
2017-03-15T10:05:17.759Z,44.8
2017-03-15T10:06:17.793Z,45.36
2017-03-15T10:07:17.839Z,45.84
2017-03-15T10:08:17.907Z,46.69
2017-03-15T10:09:17.915Z,46.08
2017-03-15T10:10:17.955Z,46.15
2017-03-15T10:11:18.005Z,47.65
2017-03-15T10:12:18.035Z,48.21
2017-03-15T10:13:18.076Z,49.43
2017-03-15T10:14:18.112Z,50.27
2017-03-15T10:15:18.144Z,51.37
2017-03-15T10:16:18.200Z,52.6
2017-03-15T10:17:18.230Z,52.79
2017-03-15T10:18:18.269Z,51.18
2017-03-15T10:19:18.306Z,51.54
2017-03-15T10:20:18.490Z,51.54
2017-03-15T10:21:18.381Z,50.99
2017-03-15T10:22:18.414Z,49.41
2017-03-15T10:23:18.457Z,46.71
2017-03-15T10:24:18.490Z,44.37
2017-03-15T10:25:18.681Z,41.83
2017-03-15T10:26:18.564Z,41.09
2017-03-15T10:27:18.607Z,39.95
2017-03-15T10:28:18.642Z,38.95
2017-03-15T10:29:18.696Z,37.81
2017-03-15T10:30:18.720Z,36.97
2017-03-15T10:31:18.755Z,37.45
2017-03-15T10:32:18.799Z,39.61
2017-03-15T10:33:18.868Z,42.52
2017-03-15T10:34:18.867Z,43.64
2017-03-15T10:35:18.931Z,44.12
2017-03-15T10:36:18.956Z,43.54
2017-03-15T10:37:18.958Z,43.47
2017-03-15T10:38:19.013Z,42.72
2017-03-15T10:39:19.056Z,42.55
2017-03-15T10:40:19.092Z,43.13
2017-03-15T10:41:19.120Z,43.3
2017-03-15T10:42:19.155Z,44.32
2017-03-15T10:43:19.202Z,44.66
2017-03-15T10:44:19.231Z,44.68
2017-03-15T10:45:19.267Z,42.1
2017-03-15T10:46:19.312Z,41.25
2017-03-15T10:47:19.348Z,40.47
2017-03-15T10:48:19.384Z,40.38
2017-03-15T10:49:19.421Z,39.06
2017-03-15T10:50:19.461Z,39.74
2017-03-15T10:51:19.488Z,40.01
2017-03-15T10:52:19.534Z,41.15
2017-03-15T10:53:19.550Z,42.56
2017-03-15T10:54:19.599Z,44.9
2017-03-15T10:55:19.639Z,46.77
2017-03-15T10:56:19.669Z,48.71
2017-03-15T10:57:19.708Z,49.46
2017-03-15T10:58:19.738Z,48.04
2017-03-15T10:59:19.775Z,46.26
2017-03-15T11:00:19.910Z,45.05
2017-03-15T11:01:19.856Z,43.75
2017-03-15T11:02:19.893Z,41.4
2017-03-15T11:03:19.919Z,40.45
2017-03-15T11:04:19.949Z,39.99
2017-03-15T11:05:20.082Z,38.87
2017-03-15T11:06:20.031Z,37.92
2017-03-15T11:07:20.062Z,37.55
2017-03-15T11:08:20.096Z,36.99
2017-03-15T11:09:20.136Z,37.21
2017-03-15T11:10:20.323Z,36.93
2017-03-15T11:11:20.185Z,36.85
2017-03-15T11:12:20.241Z,35.71
2017-03-15T11:13:20.277Z,35.71
2017-03-15T11:14:20.311Z,35.8
2017-03-15T11:15:20.348Z,36.08
2017-03-15T11:16:20.373Z,36.35
2017-03-15T11:17:20.412Z,35.4
2017-03-15T11:18:20.449Z,35.19
2017-03-15T11:19:20.482Z,34.89
2017-03-15T11:20:20.518Z,34.97
2017-03-15T11:21:20.547Z,35.73
2017-03-15T11:22:20.590Z,35.64
2017-03-15T11:23:20.621Z,36.1
2017-03-15T11:24:20.648Z,35.93
2017-03-15T11:25:20.691Z,35.85
2017-03-15T11:26:20.730Z,35.94
2017-03-15T11:27:20.761Z,35.86
2017-03-15T11:28:20.784Z,35.67
2017-03-15T11:29:20.832Z,35.88
2017-03-15T11:30:20.868Z,34.81
2017-03-15T11:31:20.902Z,35.4
2017-03-15T11:32:20.943Z,35.01
2017-03-15T11:33:20.976Z,35.01
2017-03-15T11:34:21.009Z,35.77
2017-03-15T11:35:21.037Z,35.94
2017-03-15T11:36:21.073Z,35.75
2017-03-15T11:37:21.117Z,35.86
2017-03-15T11:38:21.156Z,35.67
2017-03-15T11:39:21.168Z,35.28
2017-03-15T11:40:21.206Z,35.4
2017-03-15T11:41:21.252Z,34.81
2017-03-15T11:42:21.307Z,34.8
2017-03-15T11:43:21.322Z,35.38
2017-03-15T11:44:21.351Z,35.49
2017-03-15T11:45:21.383Z,34.81
2017-03-15T11:46:21.421Z,34.8
2017-03-15T11:47:21.460Z,34.78
2017-03-15T11:48:21.496Z,35.35
2017-03-15T11:49:21.535Z,35.35
2017-03-15T11:50:21.672Z,35.54
2017-03-15T11:51:21.595Z,35.33
2017-03-15T11:52:21.636Z,35.91
2017-03-15T11:53:21.669Z,35.5
2017-03-15T11:54:21.712Z,35.7
2017-03-15T11:55:21.837Z,36.07
2017-03-15T11:56:21.774Z,36.74
2017-03-15T11:57:21.804Z,37.58
2017-03-15T11:58:21.843Z,38.6
2017-03-15T11:59:21.874Z,39.36
2017-03-15T12:00:21.932Z,40.19
2017-03-15T12:01:21.943Z,41.03
2017-03-15T12:02:21.972Z,41.08
2017-03-15T12:03:22.008Z,41.45
2017-03-15T12:04:22.050Z,42.49
2017-03-15T12:05:22.081Z,43.62
2017-03-15T12:06:22.115Z,44.82
2017-03-15T12:07:22.148Z,46.17
2017-03-15T12:08:22.180Z,46.91
2017-03-15T12:09:22.213Z,47.75
2017-03-15T12:10:22.252Z,48.49
2017-03-15T12:11:22.279Z,49.43
2017-03-15T12:12:22.310Z,50.56
2017-03-15T12:13:22.347Z,50.74
2017-03-15T12:14:22.384Z,52.06
2017-03-15T12:15:22.418Z,53.08
2017-03-15T12:16:22.433Z,54.02
2017-03-15T12:17:22.482Z,54.88
2017-03-15T12:18:22.514Z,55.83
2017-03-15T12:19:22.549Z,55.8
2017-03-15T12:20:22.584Z,56.28
2017-03-15T12:21:22.613Z,56.57
2017-03-15T12:22:22.648Z,56.85
2017-03-15T12:23:22.684Z,56.76
2017-03-15T12:24:22.715Z,57.53
2017-03-15T12:25:22.749Z,56.57
2017-03-15T12:26:22.779Z,56.76
2017-03-15T12:27:22.815Z,55.99
2017-03-15T12:28:22.850Z,56.18
2017-03-15T12:29:22.881Z,56.69
2017-03-15T12:30:22.910Z,57.17
2017-03-15T12:31:22.950Z,57.17
2017-03-15T12:32:22.980Z,56.88
2017-03-15T12:33:23.015Z,56.69
2017-03-15T12:34:23.047Z,56.95
2017-03-15T12:35:23.098Z,57.24
2017-03-15T12:36:23.116Z,56.76
2017-03-15T12:37:23.145Z,56.85
2017-03-15T12:38:23.191Z,57.5
2017-03-15T12:39:23.215Z,57.4
2017-03-15T12:40:23.249Z,57.4
2017-03-15T12:41:23.281Z,57.87
2017-03-15T12:42:23.319Z,57.46
2017-03-15T12:43:23.342Z,57.4
2017-03-15T12:44:23.364Z,56.89
2017-03-15T12:45:23.407Z,56.8
2017-03-15T12:46:23.794Z,57.56
2017-03-15T12:47:23.483Z,57.65
2017-03-15T12:48:23.503Z,57.37
2017-03-15T12:49:23.549Z,57.18
2017-03-15T12:50:23.561Z,57.37
2017-03-15T12:51:23.612Z,57.75
2017-03-15T12:52:23.644Z,58.14
2017-03-15T12:53:23.663Z,57.65
2017-03-15T12:54:23.703Z,57.65
2017-03-15T12:55:23.743Z,58.04
2017-03-15T12:56:23.771Z,58.04
2017-03-15T12:57:23.803Z,57.46